createdAt,value
2023-02-18T00:01:37.987Z,95.57
2023-02-18T00:04:09.318Z,94.43
2023-02-18T00:06:39.114Z,95.34
2023-02-18T00:09:09.489Z,95.40
2023-02-18T00:11:39.251Z,94.75
2023-02-18T00:14:10.790Z,94.73
2023-02-18T00:16:38.980Z,95.69
2023-02-18T00:19:12.813Z,95.13
2023-02-18T00:21:40.964Z,94.88
2023-02-18T00:24:09.473Z,96.03
2023-02-18T00:26:38.316Z,94.74
2023-02-18T00:29:06.370Z,95.36
2023-02-18T00:31:37.301Z,95.59
2023-02-18T00:34:07.840Z,95.49
2023-02-18T00:36:37.482Z,95.54
2023-02-18T00:39:08.078Z,95.03
2023-02-18T00:41:37.166Z,94.97
2023-02-18T00:44:05.817Z,95.67
2023-02-18T00:46:35.072Z,95.69
2023-02-18T00:49:03.371Z,95.91
2023-02-18T00:51:31.673Z,95.42
2023-02-18T00:54:01.759Z,95.46
2023-02-18T00:56:30.186Z,95.60
2023-02-18T00:58:58.048Z,94.85
2023-02-18T01:01:27.886Z,94.94
2023-02-18T01:03:56.124Z,94.75
2023-02-18T01:06:24.746Z,95.26
2023-02-18T01:08:53.268Z,95.29
2023-02-18T01:11:23.632Z,95.80
2023-02-18T01:13:51.925Z,95.94
2023-02-18T01:16:20.409Z,95.03
2023-02-18T01:18:48.675Z,95.39
2023-02-18T01:21:17.326Z,94.67
2023-02-18T01:23:45.775Z,94.76
2023-02-18T01:26:13.789Z,94.75
2023-02-18T01:28:42.960Z,94.51
2023-02-18T01:31:13.650Z,94.09
2023-02-18T01:33:41.992Z,94.56
2023-02-18T01:36:11.454Z,94.97
2023-02-18T01:38:40.569Z,95.10
2023-02-18T01:41:08.813Z,94.34
2023-02-18T01:43:37.278Z,95.09
2023-02-18T01:46:19.528Z,95.11
2023-02-18T01:48:52.830Z,95.01
2023-02-18T01:51:25.347Z,95.46
2023-02-18T01:53:57.473Z,94.88
2023-02-18T01:56:30.327Z,95.27
2023-02-18T01:59:02.662Z,94.96
2023-02-18T02:01:34.028Z,94.36
2023-02-18T02:04:02.173Z,94.50
2023-02-18T02:06:30.184Z,94.61
2023-02-18T02:09:06.868Z,94.52
2023-02-18T02:11:50.004Z,94.67
2023-02-18T02:14:29.891Z,94.58
2023-02-18T02:17:05.825Z,94.83
2023-02-18T02:20:22.647Z,95.57
2023-02-18T02:23:46.793Z,95.09
2023-02-18T02:26:46.357Z,94.99
2023-02-18T02:29:49.886Z,95.03
2023-02-18T02:32:59.118Z,94.80
2023-02-18T02:35:32.217Z,94.33
2023-02-18T02:38:06.567Z,94.04
2023-02-18T02:40:45.948Z,94.59
2023-02-18T02:43:22.435Z,94.54
2023-02-18T02:45:57.265Z,93.72
2023-02-18T02:48:34.328Z,94.30
2023-02-18T02:51:10.213Z,94.63
2023-02-18T02:53:41.584Z,94.45
2023-02-18T02:56:15.099Z,93.68
2023-02-18T02:58:44.692Z,93.95
2023-02-18T03:01:32.304Z,94.75
2023-02-18T03:04:26.615Z,95.01
2023-02-18T03:07:12.438Z,94.89
2023-02-18T03:09:52.110Z,94.72
2023-02-18T03:12:29.014Z,94.26
2023-02-18T03:15:04.036Z,94.08
2023-02-18T03:17:37.416Z,94.65
2023-02-18T03:20:12.100Z,94.56
2023-02-18T03:22:45.285Z,94.92
2023-02-18T03:25:16.148Z,95.54
2023-02-18T03:27:48.426Z,94.38
2023-02-18T03:30:22.953Z,94.69
2023-02-18T03:32:56.247Z,94.75
2023-02-18T03:35:25.540Z,95.21
2023-02-18T03:38:01.171Z,95.13
2023-02-18T03:40:30.826Z,94.58
2023-02-18T03:42:59.542Z,94.84
2023-02-18T03:45:28.171Z,94.52
2023-02-18T03:47:56.600Z,94.70
2023-02-18T03:50:24.680Z,95.27
2023-02-18T03:52:54.465Z,94.77
2023-02-18T03:55:22.637Z,94.12
2023-02-18T03:57:50.724Z,95.07
2023-02-18T04:00:20.990Z,94.99
2023-02-18T04:02:49.013Z,94.23
2023-02-18T04:05:17.504Z,94.40
2023-02-18T04:07:45.824Z,94.33
2023-02-18T04:10:15.143Z,93.42
2023-02-18T04:12:43.042Z,94.53
2023-02-18T04:15:11.548Z,94.30
2023-02-18T04:17:39.383Z,94.32
2023-02-18T04:20:09.116Z,94.43
2023-02-18T04:22:37.499Z,94.22
2023-02-18T04:25:05.903Z,94.30
2023-02-18T04:27:35.412Z,94.63
2023-02-18T04:30:04.361Z,94.35
2023-02-18T04:32:32.553Z,94.63
2023-02-18T04:35:00.455Z,94.62
2023-02-18T04:37:28.839Z,94.78
2023-02-18T04:39:56.958Z,94.58
2023-02-18T04:42:25.061Z,95.79
2023-02-18T04:44:55.278Z,94.42
2023-02-18T04:47:23.462Z,94.23
2023-02-18T04:49:51.470Z,93.73
2023-02-18T04:52:20.300Z,93.47
2023-02-18T04:54:48.685Z,93.68
2023-02-18T04:57:16.872Z,94.36
2023-02-18T04:59:45.648Z,93.54
2023-02-18T05:02:15.161Z,93.64
2023-02-18T05:04:43.238Z,93.85
2023-02-18T05:07:12.445Z,94.41
2023-02-18T05:09:40.720Z,93.96
2023-02-18T05:12:09.111Z,93.91
2023-02-18T05:14:37.948Z,94.11
2023-02-18T05:17:06.042Z,94.38
2023-02-18T05:19:35.521Z,93.63
2023-02-18T05:22:04.078Z,93.45
2023-02-18T05:24:32.373Z,93.31
2023-02-18T05:27:01.172Z,93.59
2023-02-18T05:29:29.171Z,93.00
2023-02-18T05:31:58.680Z,93.32
2023-02-18T05:34:27.299Z,93.43
2023-02-18T05:36:56.853Z,93.06
2023-02-18T05:39:25.258Z,92.59
2023-02-18T05:41:54.160Z,92.55
2023-02-18T05:44:34.089Z,93.17
2023-02-18T05:47:05.019Z,92.58
2023-02-18T05:49:34.583Z,92.00
2023-02-18T05:52:04.921Z,92.28
2023-02-18T05:54:33.315Z,92.30
2023-02-18T05:57:01.940Z,91.71
2023-02-18T05:59:31.316Z,92.36
2023-02-18T06:02:00.716Z,90.98
2023-02-18T06:04:28.772Z,90.71
2023-02-18T06:06:57.408Z,91.34
2023-02-18T06:09:27.585Z,91.13
2023-02-18T06:11:55.749Z,91.05
2023-02-18T06:14:24.439Z,90.44
2023-02-18T06:16:52.755Z,90.95
2023-02-18T06:19:24.365Z,91.86
2023-02-18T06:21:52.782Z,91.43
2023-02-18T06:24:21.049Z,91.86
2023-02-18T06:26:51.038Z,90.10
2023-02-18T06:29:19.105Z,91.66
2023-02-18T06:31:47.816Z,90.30
2023-02-18T06:34:16.192Z,91.38
2023-02-18T06:36:44.209Z,91.18
2023-02-18T06:39:12.631Z,90.52
2023-02-18T06:41:40.805Z,91.79
2023-02-18T06:44:11.384Z,91.83
2023-02-18T06:46:40.107Z,90.72
2023-02-18T06:49:08.374Z,93.12
2023-02-18T06:51:36.682Z,91.34
2023-02-18T06:54:06.380Z,91.43
2023-02-18T06:56:34.638Z,92.12
2023-02-18T06:59:02.734Z,91.11
2023-02-18T07:01:32.844Z,91.68
2023-02-18T07:04:01.099Z,92.57
2023-02-18T07:06:29.222Z,92.65
2023-02-18T07:08:58.000Z,93.23
2023-02-18T07:11:26.710Z,93.63
2023-02-18T07:13:54.843Z,94.44
2023-02-18T07:16:23.711Z,93.52
2023-02-18T07:18:53.234Z,93.83
2023-02-18T07:21:21.975Z,93.85
2023-02-18T07:23:50.111Z,94.90
2023-02-18T07:26:18.770Z,95.20
2023-02-18T07:28:47.001Z,94.86
2023-02-18T07:31:15.408Z,94.20
2023-02-18T07:33:43.933Z,94.74
2023-02-18T07:36:13.310Z,94.54
2023-02-18T07:38:42.127Z,94.41
2023-02-18T07:41:18.493Z,92.88
2023-02-18T07:43:46.683Z,93.04
2023-02-18T07:46:14.851Z,93.96
2023-02-18T07:48:43.405Z,93.77
2023-02-18T07:51:13.829Z,95.10
2023-02-18T07:53:42.093Z,95.21
2023-02-18T07:56:11.130Z,95.59
2023-02-18T07:58:40.277Z,95.03
2023-02-18T08:01:09.463Z,94.57
2023-02-18T08:03:39.076Z,94.93
2023-02-18T08:06:08.355Z,94.33
2023-02-18T08:08:38.113Z,94.85
2023-02-18T08:11:18.789Z,94.69
2023-02-18T08:13:48.176Z,95.20
2023-02-18T08:16:17.425Z,94.38
2023-02-18T08:18:47.930Z,94.88
2023-02-18T08:21:16.289Z,94.08
2023-02-18T08:23:46.360Z,94.20
2023-02-18T08:26:14.899Z,93.58
2023-02-18T08:28:43.685Z,93.80
2023-02-18T08:31:19.260Z,91.99
2023-02-18T08:33:47.711Z,92.49
2023-02-18T08:36:15.694Z,92.85
2023-02-18T08:38:45.516Z,92.39
2023-02-18T08:41:14.690Z,90.75
2023-02-18T08:43:43.550Z,90.93
2023-02-18T08:46:16.065Z,90.33
2023-02-18T08:48:44.952Z,89.51
2023-02-18T08:51:15.129Z,88.36
2023-02-18T08:53:43.424Z,87.74
2023-02-18T08:56:13.862Z,87.49
2023-02-18T08:58:42.609Z,87.44
2023-02-18T09:01:13.939Z,86.84
2023-02-18T09:03:42.278Z,84.42
2023-02-18T09:06:10.930Z,83.38
2023-02-18T09:08:39.617Z,80.18
2023-02-18T09:11:11.413Z,80.85
2023-02-18T09:13:41.936Z,81.77
2023-02-18T09:16:14.243Z,81.91
2023-02-18T09:18:43.016Z,81.96
2023-02-18T09:21:13.614Z,79.11
2023-02-18T09:23:42.072Z,80.88
2023-02-18T09:26:14.407Z,79.86
2023-02-18T09:28:44.841Z,80.85
2023-02-18T09:31:17.041Z,79.23
2023-02-18T09:33:48.587Z,76.94
2023-02-18T09:36:17.266Z,77.61
2023-02-18T09:38:45.673Z,77.47
2023-02-18T09:41:25.687Z,76.08
2023-02-18T09:44:00.861Z,78.82
2023-02-18T09:46:34.135Z,77.66
2023-02-18T09:49:05.573Z,80.10
2023-02-18T09:51:34.423Z,78.98
2023-02-18T09:54:02.871Z,77.82
2023-02-18T09:56:35.581Z,77.13
2023-02-18T09:59:10.095Z,78.04
2023-02-18T10:01:41.038Z,77.12
2023-02-18T10:04:16.992Z,75.30
2023-02-18T10:06:48.124Z,75.34
2023-02-18T10:09:21.971Z,76.82
2023-02-18T10:11:54.063Z,75.98
2023-02-18T10:14:23.976Z,74.28
2023-02-18T10:16:54.319Z,75.76
2023-02-18T10:19:28.047Z,74.75
2023-02-18T10:21:57.769Z,76.30
